Time;durP1;ratioP1;P1;durP2;ratioP2;P2;SDS_P1;SDS_P2;PMS_P1;PMS_P2;Temp;Humidity;BMP_temperature;BMP_pressure;BME280_temperature;BME280_humidity;BME280_pressure;Samples;Min_cycle;Max_cycle;Signal;HPM_P1;HPM_P2
2024/01/22 00:00:21;;;;;;;;;;;;;;;2.85;54.62;98739.06;5112154;28;19930;-57
2024/01/22 00:03:10;;;;;;;;;;;;;;;2.79;54.19;98734.69;5113294;27;20012;-57
2024/01/22 00:05:58;;;;;;;;;;;;;;;2.71;54.92;98732.38;5104485;27;20016;-57
2024/01/22 00:08:46;;;;;;;;;;;;;;;2.65;54.60;98719.91;5112839;27;20292;-59
2024/01/22 00:11:34;;;;;;;;;;;;;;;2.75;54.72;98717.41;5120148;27;19932;-58
2024/01/22 00:14:23;;;;;;;;;;;;;;;2.79;54.92;98707.84;5106048;27;19985;-54
2024/01/22 00:17:12;;;;;;;;;;;;;;;2.92;53.58;98710.22;5103204;28;19928;-55
2024/01/22 00:20:00;;;;;;;;;;;;;;;2.79;53.65;98689.06;5104668;27;20014;-54
2024/01/22 00:22:49;;;;;;;;;;;;;;;2.75;54.62;98679.84;5106918;27;19928;-54
2024/01/22 00:25:37;;;;;;;;;;;;;;;2.77;54.51;98675.91;5106829;27;19930;-54
2024/01/22 00:28:25;;;;;;;;;;;;;;;2.57;54.36;98673.66;5105906;28;19924;-54
2024/01/22 00:31:13;;;;;;;;;;;;;;;2.73;54.20;98664.00;5108460;27;20289;-54
2024/01/22 00:34:02;;;;;;;;;;;;;;;2.79;53.86;98660.34;5112790;27;19968;-58
2024/01/22 00:36:50;;;;;;;;;;;;;;;2.71;54.34;98667.97;5107120;28;20014;-54
2024/01/22 00:39:41;;;;;;;;;;;;;;;2.66;54.70;98663.31;5112124;27;19924;-54
2024/01/22 00:42:29;;;;;;;;;;;;;;;2.71;53.89;98643.81;5115531;27;19932;-54
2024/01/22 00:45:17;;;;;;;;;;;;;;;2.69;53.96;98643.25;5108756;27;20229;-54
2024/01/22 00:48:06;;;;;;;;;;;;;;;2.67;54.26;98648.06;5104461;27;20005;-55
2024/01/22 00:50:56;;;;;;;;;;;;;;;2.71;54.22;98646.50;5107959;27;20377;-54
2024/01/22 00:53:44;;;;;;;;;;;;;;;2.66;54.64;98638.38;5110125;28;20000;-55
2024/01/22 00:56:33;;;;;;;;;;;;;;;2.65;54.65;98642.13;5112613;27;19930;-55
2024/01/22 00:59:21;;;;;;;;;;;;;;;2.63;54.77;98648.53;5110427;27;19931;-55
2024/01/22 01:02:09;;;;;;;;;;;;;;;2.61;54.59;98645.28;5106182;27;19990;-59
2024/01/22 01:04:57;;;;;;;;;;;;;;;2.65;55.07;98636.75;5115493;27;19924;-54
2024/01/22 01:07:46;;;;;;;;;;;;;;;2.63;55.04;98627.06;5111100;27;19928;-54
2024/01/22 01:10:34;;;;;;;;;;;;;;;2.58;55.21;98632.34;5108003;28;19930;-56
2024/01/22 01:13:23;;;;;;;;;;;;;;;2.53;55.41;98624.22;5106979;27;19931;-54
2024/01/22 01:16:11;;;;;;;;;;;;;;;2.64;55.40;98627.88;5108898;28;20018;-55
2024/01/22 01:18:59;;;;;;;;;;;;;;;2.72;55.59;98626.69;5109132;28;19946;-56
2024/01/22 01:21:48;;;;;;;;;;;;;;;2.72;55.21;98626.69;5104073;27;19927;-57
2024/01/22 01:24:37;;;;;;;;;;;;;;;2.61;55.09;98615.78;5117486;27;19924;-57
2024/01/22 01:27:28;;;;;;;;;;;;;;;2.59;55.43;98612.50;5108853;28;20401;-57
2024/01/22 01:30:16;;;;;;;;;;;;;;;2.61;55.29;98610.44;5108279;28;19923;-56
2024/01/22 01:33:05;;;;;;;;;;;;;;;2.55;55.49;98599.81;5106564;27;19924;-55
2024/01/22 01:35:53;;;;;;;;;;;;;;;2.57;54.87;98598.53;5107568;28;20546;-55
2024/01/22 01:38:42;;;;;;;;;;;;;;;2.52;55.38;98601.13;5104256;27;19931;-56
2024/01/22 01:41:31;;;;;;;;;;;;;;;2.59;54.97;98601.78;5102419;28;19924;-56
2024/01/22 01:44:19;;;;;;;;;;;;;;;2.65;54.61;98589.28;5107774;28;20012;-55
2024/01/22 01:47:08;;;;;;;;;;;;;;;2.59;54.33;98574.97;5107800;28;20380;-56
2024/01/22 01:49:56;;;;;;;;;;;;;;;2.69;54.03;98576.19;5107548;28;19928;-57
2024/01/22 01:52:44;;;;;;;;;;;;;;;2.66;54.26;98573.97;5103445;27;20047;-56
2024/01/22 01:55:32;;;;;;;;;;;;;;;2.70;53.85;98557.16;5108638;27;19928;-55
2024/01/22 01:58:22;;;;;;;;;;;;;;;2.69;53.94;98562.78;5107728;27;20333;-54
2024/01/22 02:01:10;;;;;;;;;;;;;;;2.74;53.60;98554.81;5106547;27;19930;-56
2024/01/22 02:03:58;;;;;;;;;;;;;;;2.69;53.62;98552.03;5103281;28;20012;-55
2024/01/22 02:06:46;;;;;;;;;;;;;;;2.56;53.63;98563.94;5100871;28;19931;-55
2024/01/22 02:09:50;;;;;;;;;;;;;;;2.73;53.31;98558.56;5110789;27;19931;-54
2024/01/22 02:12:38;;;;;;;;;;;;;;;2.65;53.55;98564.31;5109671;27;19931;-55
2024/01/22 02:15:28;;;;;;;;;;;;;;;2.68;53.31;98564.66;5102181;28;20436;-55
2024/01/22 02:18:16;;;;;;;;;;;;;;;2.66;53.85;98557.88;5110136;28;19924;-60
2024/01/22 02:21:05;;;;;;;;;;;;;;;2.67;53.33;98552.31;5107470;27;19931;-54
2024/01/22 02:23:54;;;;;;;;;;;;;;;2.66;53.59;98544.47;5110687;28;19935;-55
2024/01/22 02:26:45;;;;;;;;;;;;;;;2.65;53.24;98549.03;5114484;27;20407;-55
2024/01/22 02:29:33;;;;;;;;;;;;;;;2.70;53.86;98556.34;5115570;28;20069;-55
2024/01/22 02:32:21;;;;;;;;;;;;;;;2.69;53.50;98552.03;5106364;28;19924;-54
2024/01/22 02:35:09;;;;;;;;;;;;;;;2.70;53.19;98541.06;5107252;28;19967;-54
2024/01/22 02:37:58;;;;;;;;;;;;;;;2.71;53.04;98534.63;5098390;28;20340;-56
2024/01/22 02:40:47;;;;;;;;;;;;;;;2.71;52.73;98539.19;5108263;28;20304;-57
2024/01/22 02:43:35;;;;;;;;;;;;;;;2.78;53.26;98529.13;5109557;28;20023;-55
2024/01/22 02:46:24;;;;;;;;;;;;;;;2.74;52.86;98525.28;5108449;28;19935;-54
2024/01/22 02:49:13;;;;;;;;;;;;;;;2.73;52.98;98521.00;5105223;28;19931;-55
2024/01/22 02:52:01;;;;;;;;;;;;;;;2.70;52.92;98516.09;5110196;28;19931;-54
2024/01/22 02:54:49;;;;;;;;;;;;;;;2.73;52.59;98526.38;5109183;28;19928;-55
2024/01/22 02:57:38;;;;;;;;;;;;;;;2.79;52.67;98522.69;5110501;28;19947;-63
2024/01/22 03:00:26;;;;;;;;;;;;;;;2.74;52.45;98512.69;5106812;28;20042;-56
2024/01/22 03:03:15;;;;;;;;;;;;;;;2.70;52.77;98516.91;5110713;28;19930;-55
2024/01/22 03:06:03;;;;;;;;;;;;;;;2.78;52.36;98508.47;5107726;28;20413;-54
2024/01/22 03:08:51;;;;;;;;;;;;;;;2.78;52.05;98513.03;5105813;28;19972;-54
2024/01/22 03:11:39;;;;;;;;;;;;;;;2.70;52.33;98516.09;5099769;28;19924;-55
2024/01/22 03:14:28;;;;;;;;;;;;;;;2.89;51.60;98514.78;5111793;28;19967;-55
2024/01/22 03:17:18;;;;;;;;;;;;;;;2.71;51.65;98526.59;5104041;28;19924;-57
2024/01/22 03:20:07;;;;;;;;;;;;;;;2.87;51.41;98519.56;5105456;28;20274;-54
2024/01/22 03:22:55;;;;;;;;;;;;;;;2.96;51.16;98514.59;5110832;28;19924;-55
2024/01/22 03:25:43;;;;;;;;;;;;;;;2.88;51.12;98500.56;5093145;28;19927;-54
2024/01/22 03:28:31;;;;;;;;;;;;;;;2.92;51.50;98505.41;5110094;28;19951;-56
2024/01/22 03:31:24;;;;;;;;;;;;;;;3.05;51.92;98508.56;5105487;28;19923;-56
2024/01/22 03:34:12;;;;;;;;;;;;;;;3.03;51.92;98508.00;5109508;28;19960;-56
2024/01/22 03:37:00;;;;;;;;;;;;;;;3.14;51.66;98507.09;5090702;28;19927;-60
2024/01/22 03:39:48;;;;;;;;;;;;;;;3.06;50.84;98496.78;5106803;28;20010;-57
2024/01/22 03:42:36;;;;;;;;;;;;;;;3.21;50.62;98487.31;5104864;28;20011;-56
2024/01/22 03:45:25;;;;;;;;;;;;;;;3.14;50.98;98490.16;5105787;28;20380;-56
2024/01/22 03:48:14;;;;;;;;;;;;;;;3.12;50.76;98486.91;5105484;28;19930;-56
2024/01/22 03:51:02;;;;;;;;;;;;;;;3.09;50.49;98480.19;5106299;27;20356;-55
2024/01/22 03:53:50;;;;;;;;;;;;;;;3.09;50.67;98482.88;5112538;27;19924;-54
2024/01/22 03:56:39;;;;;;;;;;;;;;;3.04;51.07;98474.75;5110978;28;20386;-54
2024/01/22 03:59:27;;;;;;;;;;;;;;;2.97;52.09;98467.91;5112543;28;19931;-53
2024/01/22 04:02:15;;;;;;;;;;;;;;;3.00;51.34;98462.88;5115071;27;19935;-54
2024/01/22 04:05:06;;;;;;;;;;;;;;;2.95;51.16;98459.31;5120084;27;19957;-56
2024/01/22 04:07:54;;;;;;;;;;;;;;;2.87;51.12;98457.84;5107828;28;19924;-54
2024/01/22 04:10:42;;;;;;;;;;;;;;;2.90;51.05;98457.38;5106119;28;19923;-53
2024/01/22 04:13:30;;;;;;;;;;;;;;;2.95;50.94;98443.22;5109354;27;19990;-54
2024/01/22 04:16:22;;;;;;;;;;;;;;;2.88;51.41;98432.66;5107323;28;19924;-55
2024/01/22 04:19:10;;;;;;;;;;;;;;;2.79;52.11;98434.16;5105470;28;20424;-55
2024/01/22 04:22:00;;;;;;;;;;;;;;;2.77;52.26;98441.59;5099173;28;19935;-55
2024/01/22 04:24:48;;;;;;;;;;;;;;;2.81;52.49;98437.38;5099422;28;20479;-56
2024/01/22 04:27:37;;;;;;;;;;;;;;;2.81;51.64;98426.66;5095345;28;20320;-55
2024/01/22 04:30:25;;;;;;;;;;;;;;;2.79;52.19;98428.78;5105464;28;20415;-55
2024/01/22 04:33:13;;;;;;;;;;;;;;;2.95;52.13;98421.75;5100881;28;19990;-54
2024/01/22 04:36:01;;;;;;;;;;;;;;;2.84;52.07;98413.56;5101577;28;19924;-54
2024/01/22 04:38:51;;;;;;;;;;;;;;;2.95;51.72;98411.00;5103439;28;19931;-54
2024/01/22 04:41:39;;;;;;;;;;;;;;;2.78;53.53;98414.56;5105522;27;19931;-57
2024/01/22 04:44:28;;;;;;;;;;;;;;;2.77;53.35;98430.88;5097509;27;19928;-54
2024/01/22 04:47:17;;;;;;;;;;;;;;;2.79;52.78;98434.16;5116086;27;20381;-55
2024/01/22 04:50:05;;;;;;;;;;;;;;;2.78;53.02;98427.16;5111102;28;20308;-55
2024/01/22 04:52:54;;;;;;;;;;;;;;;2.91;53.12;98425.97;5110917;28;19934;-55
2024/01/22 04:55:44;;;;;;;;;;;;;;;2.94;52.88;98404.81;5105213;28;19980;-55
2024/01/22 04:58:32;;;;;;;;;;;;;;;2.95;53.40;98416.38;5109537;28;20544;-55
2024/01/22 05:01:20;;;;;;;;;;;;;;;3.06;53.15;98415.44;5104288;27;19924;-55
2024/01/22 05:04:09;;;;;;;;;;;;;;;3.13;52.78;98414.16;5106373;28;19935;-55
2024/01/22 05:06:57;;;;;;;;;;;;;;;3.12;53.47;98411.75;5105517;27;19924;-55
2024/01/22 05:09:45;;;;;;;;;;;;;;;3.19;53.25;98398.13;5108659;27;19960;-55
2024/01/22 05:12:35;;;;;;;;;;;;;;;3.33;52.62;98399.38;5104308;27;19930;-56
2024/01/22 05:15:23;;;;;;;;;;;;;;;3.33;52.43;98394.00;5109868;28;19928;-55
2024/01/22 05:18:11;;;;;;;;;;;;;;;3.36;52.29;98393.50;5116537;27;20404;-55
2024/01/22 05:21:00;;;;;;;;;;;;;;;3.40;52.66;98392.72;5109832;27;20405;-54
2024/01/22 05:23:47;;;;;;;;;;;;;;;3.41;52.84;98386.31;5112359;27;19927;-57
2024/01/22 05:26:36;;;;;;;;;;;;;;;3.56;52.01;98385.63;5116221;27;20016;-54
2024/01/22 05:29:25;;;;;;;;;;;;;;;3.66;51.32;98377.66;5113758;27;19924;-56
2024/01/22 05:32:14;;;;;;;;;;;;;;;3.68;52.20;98375.53;5112708;27;20057;-55
2024/01/22 05:35:02;;;;;;;;;;;;;;;3.59;52.11;98379.75;5111841;27;20320;-56
2024/01/22 05:37:50;;;;;;;;;;;;;;;3.69;51.69;98373.66;5109103;27;19941;-54
2024/01/22 05:40:38;;;;;;;;;;;;;;;3.75;51.92;98379.91;5101276;27;19955;-56
2024/01/22 05:43:28;;;;;;;;;;;;;;;3.84;50.38;98373.00;5109196;28;19969;-57
2024/01/22 05:46:17;;;;;;;;;;;;;;;3.92;50.13;98375.19;5104627;28;19936;-56
2024/01/22 05:49:06;;;;;;;;;;;;;;;3.84;50.14;98365.75;5108561;28;19976;-57
2024/01/22 05:51:54;;;;;;;;;;;;;;;3.87;49.67;98365.22;5110245;28;19959;-57
2024/01/22 05:54:42;;;;;;;;;;;;;;;3.86;49.96;98350.16;5104651;28;19938;-55
2024/01/22 05:57:30;;;;;;;;;;;;;;;3.79;49.66;98346.88;5098627;28;19934;-55
2024/01/22 06:00:18;;;;;;;;;;;;;;;3.90;49.29;98347.78;5100110;28;19924;-55
2024/01/22 06:03:08;;;;;;;;;;;;;;;3.76;50.45;98349.25;5100763;28;20312;-56
2024/01/22 06:05:56;;;;;;;;;;;;;;;3.79;49.30;98338.81;5103613;28;20405;-58
2024/01/22 06:08:45;;;;;;;;;;;;;;;3.83;48.94;98315.72;5108933;28;19927;-55
2024/01/22 06:11:33;;;;;;;;;;;;;;;3.75;49.10;98323.47;5101095;28;19924;-56
2024/01/22 06:14:21;;;;;;;;;;;;;;;3.78;48.65;98313.03;5103083;27;19937;-55
2024/01/22 06:17:10;;;;;;;;;;;;;;;3.84;49.21;98321.94;5101352;28;19924;-55
2024/01/22 06:20:00;;;;;;;;;;;;;;;4.00;48.81;98320.16;5103169;27;20076;-56
2024/01/22 06:22:48;;;;;;;;;;;;;;;4.04;49.11;98305.09;5100363;27;20311;-56
2024/01/22 06:25:36;;;;;;;;;;;;;;;4.06;48.51;98303.81;5088411;28;19984;-55
2024/01/22 06:28:24;;;;;;;;;;;;;;;4.06;48.94;98301.13;5104767;28;19924;-55
2024/01/22 06:31:12;;;;;;;;;;;;;;;4.02;48.73;98291.94;5098265;28;19923;-56
2024/01/22 06:34:00;;;;;;;;;;;;;;;4.04;48.37;98292.47;5101601;28;19986;-56
2024/01/22 06:36:50;;;;;;;;;;;;;;;4.16;48.18;98281.53;5101244;27;20010;-55
2024/01/22 06:39:38;;;;;;;;;;;;;;;4.15;48.27;98269.16;5100687;28;20072;-56
2024/01/22 06:42:26;;;;;;;;;;;;;;;4.10;48.30;98261.88;5098291;28;19981;-56
2024/01/22 06:45:21;;;;;;;;;;;;;;;4.25;48.31;98257.63;5077696;28;19928;-55
2024/01/22 06:48:09;;;;;;;;;;;;;;;4.23;48.11;98260.59;5102247;28;19998;-55
2024/01/22 06:50:58;;;;;;;;;;;;;;;4.31;48.21;98256.59;5099033;28;19931;-56
2024/01/22 06:53:47;;;;;;;;;;;;;;;4.30;48.86;98246.91;5099460;28;19932;-57
2024/01/22 06:56:35;;;;;;;;;;;;;;;4.33;48.80;98247.19;5103643;28;19923;-58
2024/01/22 06:59:23;;;;;;;;;;;;;;;4.37;48.87;98248.31;5100557;28;19931;-56
2024/01/22 07:02:11;;;;;;;;;;;;;;;4.33;48.46;98236.44;5108941;28;19927;-56
2024/01/22 07:05:00;;;;;;;;;;;;;;;4.40;48.98;98233.50;5100150;28;19978;-60
2024/01/22 07:07:48;;;;;;;;;;;;;;;4.38;49.05;98238.34;5107424;28;20010;-56
2024/01/22 07:10:40;;;;;;;;;;;;;;;4.47;48.69;98228.69;5103530;28;19969;-58
2024/01/22 07:13:29;;;;;;;;;;;;;;;4.44;48.74;98218.47;5103046;28;19997;-56
2024/01/22 07:16:17;;;;;;;;;;;;;;;4.43;49.08;98227.59;5105899;28;20099;-55
2024/01/22 07:19:05;;;;;;;;;;;;;;;4.60;48.07;98233.56;5110776;28;19924;-55
2024/01/22 07:21:53;;;;;;;;;;;;;;;4.59;48.41;98231.16;5108433;28;19946;-55
2024/01/22 07:24:41;;;;;;;;;;;;;;;4.59;48.47;98226.59;5114464;27;19923;-57
2024/01/22 07:27:35;;;;;;;;;;;;;;;4.63;48.80;98229.53;5114862;27;19931;-55
2024/01/22 07:30:23;;;;;;;;;;;;;;;4.60;48.56;98220.13;5114215;27;20004;-61
2024/01/22 07:33:11;;;;;;;;;;;;;;;4.59;48.37;98231.97;5111470;27;19931;-59
2024/01/22 07:36:00;;;;;;;;;;;;;;;4.69;49.10;98231.19;5113414;27;20037;-56
2024/01/22 07:38:49;;;;;;;;;;;;;;;4.64;49.56;98229.28;5117750;27;19931;-65
2024/01/22 07:41:38;;;;;;;;;;;;;;;4.70;48.64;98225.53;5114872;27;20361;-59
2024/01/22 07:44:27;;;;;;;;;;;;;;;4.76;48.98;98217.47;5116694;27;20068;-56
2024/01/22 07:47:15;;;;;;;;;;;;;;;4.82;48.50;98233.38;5114999;27;20284;-61
2024/01/22 07:50:06;;;;;;;;;;;;;;;4.83;48.71;98234.97;5119686;27;19931;-60
2024/01/22 07:52:54;;;;;;;;;;;;;;;4.82;49.14;98246.03;5120445;27;20009;-58
2024/01/22 07:55:42;;;;;;;;;;;;;;;4.90;48.62;98248.19;5112337;27;19928;-59
2024/01/22 07:58:30;;;;;;;;;;;;;;;5.01;48.25;98244.47;5118508;27;19953;-61
2024/01/22 08:01:20;;;;;;;;;;;;;;;4.89;48.33;98233.09;5111153;28;19928;-60
2024/01/22 08:04:07;;;;;;;;;;;;;;;4.98;49.08;98236.91;5108164;27;19963;-62
2024/01/22 08:07:00;;;;;;;;;;;;;;;4.93;49.86;98247.66;5104645;27;19931;-55
2024/01/22 08:09:48;;;;;;;;;;;;;;;5.04;50.33;98233.13;5114999;27;19932;-56
2024/01/22 08:12:36;;;;;;;;;;;;;;;5.14;49.83;98221.56;5107902;27;20344;-56
2024/01/22 08:15:24;;;;;;;;;;;;;;;5.18;48.94;98228.84;5108108;27;20387;-56
2024/01/22 08:18:14;;;;;;;;;;;;;;;5.17;49.64;98223.75;5112386;27;19931;-56
2024/01/22 08:21:03;;;;;;;;;;;;;;;5.26;49.77;98216.72;5101184;28;19935;-56
2024/01/22 08:23:51;;;;;;;;;;;;;;;5.29;49.67;98210.81;5117013;27;19965;-56
2024/01/22 08:26:39;;;;;;;;;;;;;;;5.31;49.38;98195.16;5101875;27;20307;-56
2024/01/22 08:29:27;;;;;;;;;;;;;;;5.34;49.65;98193.84;5110686;28;19927;-63
2024/01/22 08:32:15;;;;;;;;;;;;;;;5.33;50.33;98200.31;5102595;27;20302;-56
2024/01/22 08:35:09;;;;;;;;;;;;;;;5.32;49.42;98177.91;5106774;27;19924;-57
2024/01/22 08:37:57;;;;;;;;;;;;;;;5.33;49.27;98176.88;5117791;27;19974;-55
2024/01/22 08:40:45;;;;;;;;;;;;;;;5.29;49.76;98170.41;5106697;27;19924;-56
2024/01/22 08:43:34;;;;;;;;;;;;;;;5.38;49.45;98167.94;5105117;27;19931;-56
2024/01/22 08:46:22;;;;;;;;;;;;;;;5.45;49.60;98165.81;5108927;28;20259;-58
2024/01/22 08:49:11;;;;;;;;;;;;;;;5.46;49.25;98159.31;5114823;27;20007;-56
2024/01/22 08:52:00;;;;;;;;;;;;;;;5.41;49.42;98162.03;5118304;27;20040;-56
2024/01/22 08:54:49;;;;;;;;;;;;;;;5.49;49.50;98158.81;5118958;27;19928;-57
2024/01/22 08:57:37;;;;;;;;;;;;;;;5.41;49.64;98160.13;5106371;27;19946;-57
2024/01/22 09:00:25;;;;;;;;;;;;;;;5.54;49.65;98161.47;5104051;27;19992;-56
2024/01/22 09:03:14;;;;;;;;;;;;;;;5.61;48.97;98150.41;5106490;27;19935;-56
2024/01/22 09:06:04;;;;;;;;;;;;;;;5.56;49.44;98163.91;5105934;27;20430;-56
2024/01/22 09:08:54;;;;;;;;;;;;;;;5.69;49.10;98156.03;5111690;27;19976;-59
2024/01/22 09:11:42;;;;;;;;;;;;;;;5.75;48.95;98154.13;5104901;28;19924;-55
2024/01/22 09:14:30;;;;;;;;;;;;;;;5.81;48.88;98147.66;5101313;27;19931;-56
2024/01/22 09:17:18;;;;;;;;;;;;;;;5.82;49.93;98145.78;5105682;28;20440;-58
2024/01/22 09:20:07;;;;;;;;;;;;;;;5.89;49.12;98148.97;5096551;28;19932;-57
2024/01/22 09:22:55;;;;;;;;;;;;;;;5.92;49.50;98135.81;5110904;28;19930;-56
2024/01/22 09:25:45;;;;;;;;;;;;;;;5.96;49.05;98134.16;5099985;28;20015;-57
2024/01/22 09:28:33;;;;;;;;;;;;;;;6.07;48.91;98120.63;5105575;27;19924;-56
2024/01/22 09:31:21;;;;;;;;;;;;;;;6.10;48.11;98128.97;5105283;27;19974;-56
2024/01/22 09:34:10;;;;;;;;;;;;;;;6.13;48.19;98136.53;5108975;28;19928;-56
2024/01/22 09:36:58;;;;;;;;;;;;;;;6.14;48.19;98138.13;5107420;28;19924;-56
2024/01/22 09:39:46;;;;;;;;;;;;;;;6.25;48.13;98122.72;5107836;28;20128;-57
2024/01/22 09:42:35;;;;;;;;;;;;;;;6.32;48.07;98127.78;5105588;27;19927;-57
2024/01/22 09:45:24;;;;;;;;;;;;;;;6.24;48.08;98121.09;5102842;28;19931;-57
2024/01/22 09:48:13;;;;;;;;;;;;;;;6.29;48.70;98124.56;5108252;27;19923;-56
2024/01/22 09:51:01;;;;;;;;;;;;;;;6.45;48.29;98124.50;5106195;28;19924;-56
2024/01/22 09:53:49;;;;;;;;;;;;;;;6.49;47.86;98118.22;5099608;27;20396;-56
2024/01/22 09:56:37;;;;;;;;;;;;;;;6.52;48.33;98116.88;5105806;28;20326;-56
2024/01/22 09:59:28;;;;;;;;;;;;;;;6.54;47.93;98103.91;5104608;27;19924;-56
2024/01/22 10:02:16;;;;;;;;;;;;;;;6.57;47.91;98124.94;5099614;28;19930;-56
2024/01/22 10:05:06;;;;;;;;;;;;;;;6.70;47.31;98110.81;5107740;28;19928;-57
2024/01/22 10:07:54;;;;;;;;;;;;;;;6.76;47.17;98112.38;5109465;28;19931;-57
2024/01/22 10:10:43;;;;;;;;;;;;;;;6.69;46.99;98106.50;5109938;28;19924;-56
2024/01/22 10:13:31;;;;;;;;;;;;;;;6.76;47.21;98090.78;5106334;28;20057;-57
2024/01/22 10:16:20;;;;;;;;;;;;;;;6.86;47.85;98089.09;5103756;28;19927;-56
2024/01/22 10:19:09;;;;;;;;;;;;;;;7.04;47.23;98093.81;5103548;28;20439;-59
2024/01/22 10:22:00;;;;;;;;;;;;;;;7.03;47.32;98084.06;5088061;28;20393;-55
2024/01/22 10:24:58;;;;;;;;;;;;;;;7.06;47.65;98084.31;5088877;28;19947;-58
2024/01/22 10:27:46;;;;;;;;;;;;;;;7.01;47.84;98088.97;5101928;28;20053;-56
2024/01/22 10:30:34;;;;;;;;;;;;;;;7.14;46.76;98093.72;5100376;28;20278;-57
2024/01/22 10:33:23;;;;;;;;;;;;;;;7.26;46.99;98088.75;5103274;28;20025;-56
2024/01/22 10:36:15;;;;;;;;;;;;;;;7.27;48.07;98084.94;5105349;28;20376;-56
2024/01/22 10:39:04;;;;;;;;;;;;;;;7.39;47.10;98076.44;5103274;28;19923;-56
2024/01/22 10:41:52;;;;;;;;;;;;;;;7.46;47.45;98058.00;5097540;28;19931;-56
2024/01/22 10:44:42;;;;;;;;;;;;;;;7.45;47.84;98053.66;5096384;28;19973;-55
2024/01/22 10:47:30;;;;;;;;;;;;;;;7.55;47.00;98050.06;5100710;28;19932;-56
2024/01/22 10:50:20;;;;;;;;;;;;;;;7.46;47.90;98059.91;5103652;28;20005;-57
2024/01/22 10:53:11;;;;;;;;;;;;;;;7.52;47.37;98053.34;5098765;28;19924;-56
2024/01/22 10:56:00;;;;;;;;;;;;;;;7.59;48.32;98051.91;5095632;28;19932;-58
2024/01/22 10:58:49;;;;;;;;;;;;;;;7.55;48.32;98040.03;5104153;28;20049;-57
2024/01/22 11:01:39;;;;;;;;;;;;;;;7.55;48.64;98033.81;5111326;27;19931;-56
2024/01/22 11:04:28;;;;;;;;;;;;;;;7.62;48.83;98026.19;5108118;28;20004;-56
2024/01/22 11:07:17;;;;;;;;;;;;;;;7.61;48.66;98014.53;5106466;28;19931;-56
2024/01/22 11:10:06;;;;;;;;;;;;;;;7.64;49.04;98013.19;5110238;27;19932;-55
2024/01/22 11:12:54;;;;;;;;;;;;;;;7.76;49.80;98012.75;5108966;27;20035;-55
2024/01/22 11:15:42;;;;;;;;;;;;;;;7.91;49.02;98014.47;5104260;28;19930;-56
2024/01/22 11:18:33;;;;;;;;;;;;;;;8.01;48.59;98014.31;5110922;27;20383;-56
2024/01/22 11:21:21;;;;;;;;;;;;;;;8.13;48.67;97987.63;5115433;27;19932;-56
2024/01/22 11:24:12;;;;;;;;;;;;;;;8.11;48.32;97993.34;5112999;27;19924;-56
2024/01/22 11:27:04;;;;;;;;;;;;;;;8.10;49.10;97982.81;5107673;27;19924;-58
2024/01/22 11:29:53;;;;;;;;;;;;;;;8.21;49.10;97978.06;5110590;28;19931;-57
2024/01/22 11:32:42;;;;;;;;;;;;;;;8.24;49.40;97977.44;5104290;28;19928;-58
2024/01/22 11:35:35;;;;;;;;;;;;;;;8.28;49.00;97963.03;5099214;28;20018;-57
2024/01/22 11:38:48;;;;;;;;;;;;;;;8.30;49.25;97960.84;5102611;28;19931;-57
2024/01/22 11:41:40;;;;;;;;;;;;;;;8.29;49.41;97955.72;5100210;28;20270;-56
2024/01/22 11:44:28;;;;;;;;;;;;;;;8.21;49.79;97959.91;5105947;27;19927;-58
2024/01/22 11:47:16;;;;;;;;;;;;;;;8.14;50.08;97952.16;5102729;28;19931;-57
2024/01/22 11:50:07;;;;;;;;;;;;;;;8.15;50.31;97947.56;5102388;28;19924;-57
2024/01/22 11:52:59;;;;;;;;;;;;;;;8.32;49.08;97942.41;5099521;27;20017;-56
2024/01/22 11:55:56;;;;;;;;;;;;;;;8.30;49.38;97941.88;5104302;28;19923;-57
2024/01/22 11:58:46;;;;;;;;;;;;;;;8.20;50.06;97931.22;5107549;28;19927;-59
2024/01/22 12:01:34;;;;;;;;;;;;;;;8.20;48.83;97925.81;5106945;28;19930;-58
2024/01/22 12:04:22;;;;;;;;;;;;;;;8.18;49.63;97922.59;5103126;27;20500;-56
2024/01/22 12:07:11;;;;;;;;;;;;;;;8.23;49.51;97916.31;5101920;28;19935;-57
2024/01/22 12:09:59;;;;;;;;;;;;;;;8.25;49.12;97908.69;5105236;28;19943;-56
2024/01/22 12:12:54;;;;;;;;;;;;;;;8.35;48.98;97892.28;5104887;27;20433;-57
2024/01/22 12:15:43;;;;;;;;;;;;;;;8.24;49.81;97890.84;5104357;28;19928;-58
2024/01/22 12:18:32;;;;;;;;;;;;;;;8.43;49.96;97888.13;5111860;27;20018;-57
2024/01/22 12:21:20;;;;;;;;;;;;;;;8.42;50.41;97881.13;5109764;27;20529;-57
2024/01/22 12:24:14;;;;;;;;;;;;;;;8.53;50.40;97877.13;5114022;27;20293;-56
2024/01/22 12:27:02;;;;;;;;;;;;;;;8.51;50.21;97874.69;5112705;27;19935;-57
2024/01/22 12:29:50;;;;;;;;;;;;;;;8.58;49.80;97874.31;5106824;27;19973;-56
2024/01/22 12:32:39;;;;;;;;;;;;;;;8.53;50.03;97877.13;5106253;27;19931;-56
2024/01/22 12:35:28;;;;;;;;;;;;;;;8.64;50.61;97871.22;5116211;27;19927;-56
2024/01/22 12:38:16;;;;;;;;;;;;;;;8.65;49.35;97875.53;5115650;27;19931;-57
2024/01/22 12:41:09;;;;;;;;;;;;;;;8.63;49.97;97860.69;5109535;27;19924;-57
2024/01/22 12:43:57;;;;;;;;;;;;;;;8.59;50.20;97871.31;5107577;27;20045;-57
2024/01/22 12:46:46;;;;;;;;;;;;;;;8.61;50.34;97868.28;5123001;27;19924;-56
2024/01/22 12:49:35;;;;;;;;;;;;;;;8.63;49.81;97879.66;5111522;27;19956;-56
2024/01/22 12:52:25;;;;;;;;;;;;;;;8.56;50.53;97871.91;5103031;27;19948;-57
2024/01/22 12:55:14;;;;;;;;;;;;;;;8.59;50.54;97865.09;5098433;27;20014;-57
2024/01/22 12:58:02;;;;;;;;;;;;;;;8.61;50.80;97849.34;5100596;28;19939;-57
2024/01/22 13:00:50;;;;;;;;;;;;;;;8.56;50.39;97844.00;5108024;28;20018;-56
2024/01/22 13:03:38;;;;;;;;;;;;;;;8.52;50.67;97833.00;5106914;28;19928;-56
2024/01/22 13:06:28;;;;;;;;;;;;;;;8.63;50.59;97822.78;5104265;28;19923;-57
2024/01/22 13:09:17;;;;;;;;;;;;;;;8.69;50.92;97835.13;5112240;28;20414;-57
2024/01/22 13:12:06;;;;;;;;;;;;;;;8.63;50.65;97825.47;5107716;28;19939;-57
2024/01/22 13:14:55;;;;;;;;;;;;;;;8.45;51.27;97829.88;5102691;27;19935;-57
2024/01/22 13:17:43;;;;;;;;;;;;;;;8.66;51.13;97827.56;5110755;28;19928;-57
2024/01/22 13:20:31;;;;;;;;;;;;;;;8.67;50.34;97821.06;5100168;28;20027;-56
2024/01/22 13:23:21;;;;;;;;;;;;;;;8.64;50.95;97843.34;5106004;28;19931;-57
2024/01/22 13:26:09;;;;;;;;;;;;;;;8.62;50.75;97823.84;5111244;27;19963;-58
2024/01/22 13:28:58;;;;;;;;;;;;;;;8.59;51.07;97819.84;5115561;27;19927;-56
2024/01/22 13:31:46;;;;;;;;;;;;;;;8.59;51.25;97813.63;5093551;28;19962;-58
2024/01/22 13:34:35;;;;;;;;;;;;;;;8.63;51.08;97822.78;5105835;27;20006;-56
2024/01/22 13:37:25;;;;;;;;;;;;;;;8.60;51.29;97818.75;5109699;27;19924;-56
2024/01/22 13:40:14;;;;;;;;;;;;;;;8.51;51.63;97825.16;5109756;27;20027;-57
2024/01/22 13:43:02;;;;;;;;;;;;;;;8.53;51.29;97817.56;5105828;27;19934;-56
2024/01/22 13:45:51;;;;;;;;;;;;;;;8.49;52.44;97840.91;5111385;27;20495;-56
2024/01/22 13:48:41;;;;;;;;;;;;;;;8.35;52.77;97825.41;5116024;27;19928;-57
2024/01/22 13:51:34;;;;;;;;;;;;;;;8.46;53.09;97811.72;5103437;27;19924;-56
2024/01/22 13:54:22;;;;;;;;;;;;;;;8.40;53.45;97817.22;5102737;27;19991;-57
2024/01/22 13:57:11;;;;;;;;;;;;;;;8.50;53.32;97808.09;5107928;27;19962;-57
2024/01/22 13:59:59;;;;;;;;;;;;;;;8.55;53.19;97809.91;5101358;28;20285;-57
2024/01/22 14:02:51;;;;;;;;;;;;;;;8.41;54.46;97793.66;5108378;28;19924;-57
2024/01/22 14:05:39;;;;;;;;;;;;;;;8.61;54.35;97792.47;5088103;27;19973;-57
2024/01/22 14:08:28;;;;;;;;;;;;;;;8.46;54.75;97784.63;5112180;27;20018;-60
2024/01/22 14:11:16;;;;;;;;;;;;;;;8.56;55.11;97784.44;5088985;27;19924;-57
2024/01/22 14:14:06;;;;;;;;;;;;;;;8.58;55.19;97791.19;5103051;27;19923;-57
2024/01/22 14:16:54;;;;;;;;;;;;;;;8.60;55.47;97791.66;5103983;27;19928;-58
2024/01/22 14:19:42;;;;;;;;;;;;;;;8.66;55.20;97784.25;5110272;27;19936;-58
2024/01/22 14:22:30;;;;;;;;;;;;;;;8.76;55.53;97778.63;5093377;28;19962;-58
2024/01/22 14:25:19;;;;;;;;;;;;;;;8.65;55.76;97788.88;5101333;28;19924;-56
2024/01/22 14:28:07;;;;;;;;;;;;;;;8.76;55.72;97772.41;5103909;28;19963;-57
2024/01/22 14:30:57;;;;;;;;;;;;;;;8.72;55.91;97777.63;5101457;27;20018;-57
2024/01/22 14:33:45;;;;;;;;;;;;;;;8.62;56.52;97777.81;5103102;28;20297;-57
2024/01/22 14:36:33;;;;;;;;;;;;;;;8.63;56.40;97768.63;5101635;28;19928;-57
2024/01/22 14:39:21;;;;;;;;;;;;;;;8.76;56.38;97762.38;5111431;28;19928;-56
2024/01/22 14:42:10;;;;;;;;;;;;;;;8.64;57.39;97772.91;5105281;28;20060;-57
2024/01/22 14:45:02;;;;;;;;;;;;;;;8.69;57.76;97772.81;5112216;27;21200;-58
2024/01/22 14:47:54;;;;;;;;;;;;;;;8.79;57.46;97761.78;5104027;28;20445;-57
2024/01/22 14:50:42;;;;;;;;;;;;;;;8.82;57.64;97760.34;5106319;28;19923;-56